Terminal Aerodrome Forecast
Issued by NWS Twin Cities, MN

Home | Current Version | Previous Version | Graphics & Text | Print | Product List | Glossary On
Versions: 1 2 3 4 5 6 7 8 9 10 11 12 13 14 15 16 17 18 19 20 21
000
FTUS43 KMPX 031741
TAFSTC
TAF
KSTC 031741Z 0318/0418 16008KT P6SM OVC023
     FM032200 15008KT P6SM SCT025 BKN100
     FM040300 15008KT 4SM -SN OVC018
     FM040430 15008KT 2SM -SN OVC008
     FM041000 16008KT P6SM VCSH OVC008=

USA.gov is the U.S. government's official web portal to all federal, state and local government web resources and services.